sensor_id;sensor_type;location;lat;lon;timestamp;pressure;altitude;pressure_sealevel;temperature;humidity
41686;BME280;27370;42.764;23.432;2023-09-19T00:01:08;95954.88;;;16.08;100.00
41686;BME280;27370;42.764;23.432;2023-09-19T00:03:37;95948.59;;;15.95;100.00
41686;BME280;27370;42.764;23.432;2023-09-19T00:06:18;95947.94;;;15.91;100.00
41686;BME280;27370;42.764;23.432;2023-09-19T00:08:43;95958.84;;;15.91;100.00
41686;BME280;27370;42.764;23.432;2023-09-19T00:11:09;95961.16;;;15.92;100.00
41686;BME280;27370;42.764;23.432;2023-09-19T00:13:36;95957.75;;;15.88;100.00
41686;BME280;27370;42.764;23.432;2023-09-19T00:16:11;95957.16;;;15.81;100.00
41686;BME280;27370;42.764;23.432;2023-09-19T00:18:38;95948.34;;;15.60;100.00
41686;BME280;27370;42.764;23.432;2023-09-19T00:21:03;95957.13;;;15.68;100.00
41686;BME280;27370;42.764;23.432;2023-09-19T00:23:33;95949.94;;;15.74;100.00
41686;BME280;27370;42.764;23.432;2023-09-19T00:26:01;95944.09;;;15.59;100.00
41686;BME280;27370;42.764;23.432;2023-09-19T00:28:27;95950.03;;;15.54;100.00
41686;BME280;27370;42.764;23.432;2023-09-19T00:30:53;95945.34;;;15.55;100.00
41686;BME280;27370;42.764;23.432;2023-09-19T00:33:21;95952.44;;;15.52;100.00
41686;BME280;27370;42.764;23.432;2023-09-19T00:35:50;95948.94;;;15.52;100.00
41686;BME280;27370;42.764;23.432;2023-09-19T00:38:17;95946.13;;;15.55;100.00
41686;BME280;27370;42.764;23.432;2023-09-19T00:40:47;95948.84;;;15.55;100.00
41686;BME280;27370;42.764;23.432;2023-09-19T00:43:13;95947.16;;;15.45;100.00
41686;BME280;27370;42.764;23.432;2023-09-19T00:45:42;95939.78;;;15.29;100.00
41686;BME280;27370;42.764;23.432;2023-09-19T00:48:08;95942.25;;;15.40;100.00
41686;BME280;27370;42.764;23.432;2023-09-19T00:50:35;95934.13;;;15.37;100.00
41686;BME280;27370;42.764;23.432;2023-09-19T00:53:01;95937.31;;;15.19;100.00
41686;BME280;27370;42.764;23.432;2023-09-19T00:55:29;95925.31;;;15.16;100.00
41686;BME280;27370;42.764;23.432;2023-09-19T00:57:56;95937.56;;;15.24;100.00
41686;BME280;27370;42.764;23.432;2023-09-19T01:00:22;95932.63;;;15.19;100.00
41686;BME280;27370;42.764;23.432;2023-09-19T01:02:49;95937.38;;;15.15;100.00
41686;BME280;27370;42.764;23.432;2023-09-19T01:05:14;95928.28;;;15.22;100.00
41686;BME280;27370;42.764;23.432;2023-09-19T01:07:40;95928.44;;;15.15;100.00
41686;BME280;27370;42.764;23.432;2023-09-19T01:10:08;95934.75;;;15.12;100.00
41686;BME280;27370;42.764;23.432;2023-09-19T01:23:23;95939.09;;;15.09;100.00
41686;BME280;27370;42.764;23.432;2023-09-19T01:26:05;95933.50;;;15.16;100.00
41686;BME280;27370;42.764;23.432;2023-09-19T01:28:53;95939.44;;;15.11;100.00
41686;BME280;27370;42.764;23.432;2023-09-19T01:31:29;95937.84;;;14.97;100.00
41686;BME280;27370;42.764;23.432;2023-09-19T01:34:03;95932.47;;;14.94;100.00
41686;BME280;27370;42.764;23.432;2023-09-19T01:36:35;95940.56;;;14.97;100.00
41686;BME280;27370;42.764;23.432;2023-09-19T01:39:06;95944.97;;;14.91;100.00
41686;BME280;27370;42.764;23.432;2023-09-19T01:42:24;95934.34;;;14.81;100.00
41686;BME280;27370;42.764;23.432;2023-09-19T01:45:09;95933.66;;;14.93;100.00
41686;BME280;27370;42.764;23.432;2023-09-19T01:47:42;95934.84;;;14.92;100.00
41686;BME280;27370;42.764;23.432;2023-09-19T01:50:33;95935.69;;;14.89;100.00
41686;BME280;27370;42.764;23.432;2023-09-19T01:53:28;95939.53;;;14.91;100.00
41686;BME280;27370;42.764;23.432;2023-09-19T01:55:57;95928.88;;;14.81;100.00
41686;BME280;27370;42.764;23.432;2023-09-19T01:58:41;95919.84;;;14.84;100.00
41686;BME280;27370;42.764;23.432;2023-09-19T02:01:11;95928.38;;;14.86;100.00
41686;BME280;27370;42.764;23.432;2023-09-19T02:03:40;95935.72;;;14.73;100.00
41686;BME280;27370;42.764;23.432;2023-09-19T02:06:07;95946.34;;;14.67;100.00
41686;BME280;27370;42.764;23.432;2023-09-19T02:08:37;95957.50;;;14.73;100.00
41686;BME280;27370;42.764;23.432;2023-09-19T02:11:02;95954.41;;;14.54;100.00
41686;BME280;27370;42.764;23.432;2023-09-19T02:13:28;95957.41;;;14.60;100.00
41686;BME280;27370;42.764;23.432;2023-09-19T02:15:54;95951.19;;;14.59;100.00
41686;BME280;27370;42.764;23.432;2023-09-19T02:18:19;95950.59;;;14.68;100.00
41686;BME280;27370;42.764;23.432;2023-09-19T02:20:45;95943.88;;;14.73;100.00
41686;BME280;27370;42.764;23.432;2023-09-19T02:23:14;95943.00;;;14.59;100.00
41686;BME280;27370;42.764;23.432;2023-09-19T02:25:41;95947.44;;;14.53;100.00
41686;BME280;27370;42.764;23.432;2023-09-19T02:28:08;95946.66;;;14.53;100.00
41686;BME280;27370;42.764;23.432;2023-09-19T02:30:34;95933.22;;;14.62;100.00
41686;BME280;27370;42.764;23.432;2023-09-19T02:33:00;95931.84;;;14.54;100.00
41686;BME280;27370;42.764;23.432;2023-09-19T02:35:27;95931.50;;;14.52;100.00
41686;BME280;27370;42.764;23.432;2023-09-19T02:37:53;95933.19;;;14.46;100.00
41686;BME280;27370;42.764;23.432;2023-09-19T02:40:19;95918.03;;;14.45;100.00
41686;BME280;27370;42.764;23.432;2023-09-19T02:42:46;95918.66;;;14.32;100.00
41686;BME280;27370;42.764;23.432;2023-09-19T02:45:16;95918.41;;;14.27;100.00
41686;BME280;27370;42.764;23.432;2023-09-19T02:47:43;95916.31;;;14.15;100.00
41686;BME280;27370;42.764;23.432;2023-09-19T02:50:09;95914.44;;;14.12;100.00
41686;BME280;27370;42.764;23.432;2023-09-19T02:52:41;95910.44;;;14.16;100.00
41686;BME280;27370;42.764;23.432;2023-09-19T02:55:09;95906.19;;;14.15;100.00
41686;BME280;27370;42.764;23.432;2023-09-19T02:57:36;95907.50;;;14.27;100.00
41686;BME280;27370;42.764;23.432;2023-09-19T03:00:07;95905.00;;;14.16;100.00
41686;BME280;27370;42.764;23.432;2023-09-19T03:02:33;95903.56;;;14.12;100.00
41686;BME280;27370;42.764;23.432;2023-09-19T03:05:00;95897.91;;;14.02;100.00
41686;BME280;27370;42.764;23.432;2023-09-19T03:07:28;95903.22;;;14.09;100.00
41686;BME280;27370;42.764;23.432;2023-09-19T03:09:53;95912.75;;;13.82;100.00
41686;BME280;27370;42.764;23.432;2023-09-19T03:12:20;95909.03;;;13.92;100.00
41686;BME280;27370;42.764;23.432;2023-09-19T03:14:46;95908.47;;;13.81;100.00
41686;BME280;27370;42.764;23.432;2023-09-19T03:17:12;95905.03;;;13.57;100.00
41686;BME280;27370;42.764;23.432;2023-09-19T03:19:40;95912.81;;;13.58;100.00
41686;BME280;27370;42.764;23.432;2023-09-19T03:22:06;95902.31;;;13.57;100.00
41686;BME280;27370;42.764;23.432;2023-09-19T03:24:31;95900.31;;;13.61;100.00
41686;BME280;27370;42.764;23.432;2023-09-19T03:26:59;95886.84;;;13.54;100.00
41686;BME280;27370;42.764;23.432;2023-09-19T03:29:25;95881.75;;;13.56;100.00
41686;BME280;27370;42.764;23.432;2023-09-19T03:31:52;95888.03;;;13.53;100.00
41686;BME280;27370;42.764;23.432;2023-09-19T03:34:20;95892.06;;;13.44;100.00
41686;BME280;27370;42.764;23.432;2023-09-19T03:36:46;95888.03;;;13.53;100.00
41686;BME280;27370;42.764;23.432;2023-09-19T03:39:12;95898.56;;;13.51;100.00
41686;BME280;27370;42.764;23.432;2023-09-19T03:41:40;95906.16;;;13.39;100.00
41686;BME280;27370;42.764;23.432;2023-09-19T03:44:05;95901.19;;;13.54;100.00
41686;BME280;27370;42.764;23.432;2023-09-19T03:46:31;95912.50;;;13.53;100.00
41686;BME280;27370;42.764;23.432;2023-09-19T03:48:58;95906.44;;;13.45;100.00
41686;BME280;27370;42.764;23.432;2023-09-19T03:51:24;95908.56;;;13.34;100.00
41686;BME280;27370;42.764;23.432;2023-09-19T03:53:49;95905.31;;;13.42;100.00
41686;BME280;27370;42.764;23.432;2023-09-19T03:56:15;95912.81;;;13.35;100.00
41686;BME280;27370;42.764;23.432;2023-09-19T03:58:41;95915.97;;;13.33;100.00
41686;BME280;27370;42.764;23.432;2023-09-19T04:01:06;95925.50;;;13.22;100.00
41686;BME280;27370;42.764;23.432;2023-09-19T04:03:33;95918.31;;;13.08;100.00
41686;BME280;27370;42.764;23.432;2023-09-19T04:06:16;95931.00;;;12.95;100.00
41686;BME280;27370;42.764;23.432;2023-09-19T04:08:41;95934.94;;;12.90;100.00
41686;BME280;27370;42.764;23.432;2023-09-19T04:11:08;95936.63;;;12.80;100.00
41686;BME280;27370;42.764;23.432;2023-09-19T04:13:34;95932.09;;;12.74;100.00
41686;BME280;27370;42.764;23.432;2023-09-19T04:28:09;95932.47;;;13.23;100.00
41686;BME280;27370;42.764;23.432;2023-09-19T04:30:37;95939.97;;;13.15;100.00
41686;BME280;27370;42.764;23.432;2023-09-19T04:33:03;95936.09;;;13.12;100.00
41686;BME280;27370;42.764;23.432;2023-09-19T04:35:29;95937.28;;;13.11;100.00
41686;BME280;27370;42.764;23.432;2023-09-19T04:37:57;95942.94;;;13.24;100.00
41686;BME280;27370;42.764;23.432;2023-09-19T04:40:23;95939.16;;;13.18;100.00
41686;BME280;27370;42.764;23.432;2023-09-19T04:42:54;95934.53;;;13.15;100.00
41686;BME280;27370;42.764;23.432;2023-09-19T04:45:25;95926.28;;;13.22;100.00
41686;BME280;27370;42.764;23.432;2023-09-19T04:47:55;95926.97;;;13.26;100.00
41686;BME280;27370;42.764;23.432;2023-09-19T04:50:21;95934.31;;;13.29;100.00
41686;BME280;27370;42.764;23.432;2023-09-19T04:52:51;95925.31;;;13.32;100.00
41686;BME280;27370;42.764;23.432;2023-09-19T04:55:18;95920.97;;;13.35;100.00
41686;BME280;27370;42.764;23.432;2023-09-19T04:57:48;95919.28;;;13.44;100.00
41686;BME280;27370;42.764;23.432;2023-09-19T05:00:16;95934.63;;;13.55;100.00
41686;BME280;27370;42.764;23.432;2023-09-19T05:02:42;95929.59;;;13.73;100.00
41686;BME280;27370;42.764;23.432;2023-09-19T05:05:09;95920.09;;;14.01;100.00
41686;BME280;27370;42.764;23.432;2023-09-19T05:07:42;95921.84;;;14.11;100.00
41686;BME280;27370;42.764;23.432;2023-09-19T05:10:09;95918.53;;;14.20;100.00
41686;BME280;27370;42.764;23.432;2023-09-19T05:12:39;95909.72;;;14.32;100.00
41686;BME280;27370;42.764;23.432;2023-09-19T05:15:05;95907.66;;;14.56;100.00
41686;BME280;27370;42.764;23.432;2023-09-19T05:17:33;95915.69;;;14.79;100.00
41686;BME280;27370;42.764;23.432;2023-09-19T05:19:59;95905.41;;;15.32;100.00
41686;BME280;27370;42.764;23.432;2023-09-19T05:22:28;95899.09;;;16.06;100.00
41686;BME280;27370;42.764;23.432;2023-09-19T05:24:58;95890.22;;;16.69;100.00
41686;BME280;27370;42.764;23.432;2023-09-19T05:27:24;95897.41;;;17.01;100.00
41686;BME280;27370;42.764;23.432;2023-09-19T05:29:49;95893.91;;;17.00;100.00
41686;BME280;27370;42.764;23.432;2023-09-19T05:32:18;95891.28;;;16.84;100.00
41686;BME280;27370;42.764;23.432;2023-09-19T05:34:45;95899.41;;;16.75;100.00
41686;BME280;27370;42.764;23.432;2023-09-19T05:37:12;95893.81;;;16.78;100.00
41686;BME280;27370;42.764;23.432;2023-09-19T05:39:38;95892.81;;;16.85;100.00
41686;BME280;27370;42.764;23.432;2023-09-19T05:42:03;95881.31;;;17.03;100.00
41686;BME280;27370;42.764;23.432;2023-09-19T05:44:29;95880.16;;;17.13;100.00
41686;BME280;27370;42.764;23.432;2023-09-19T05:46:54;95879.72;;;17.14;100.00
41686;BME280;27370;42.764;23.432;2023-09-19T05:49:22;95876.09;;;17.18;100.00
41686;BME280;27370;42.764;23.432;2023-09-19T05:51:47;95876.66;;;17.25;100.00
41686;BME280;27370;42.764;23.432;2023-09-19T05:54:13;95876.03;;;17.43;100.00
41686;BME280;27370;42.764;23.432;2023-09-19T05:56:38;95875.66;;;17.54;100.00
41686;BME280;27370;42.764;23.432;2023-09-19T05:59:05;95869.47;;;17.62;100.00
41686;BME280;27370;42.764;23.432;2023-09-19T06:01:30;95874.44;;;17.67;100.00
41686;BME280;27370;42.764;23.432;2023-09-19T06:03:58;95861.47;;;17.90;100.00
41686;BME280;27370;42.764;23.432;2023-09-19T06:06:25;95865.59;;;18.16;100.00
41686;BME280;27370;42.764;23.432;2023-09-19T06:08:52;95860.44;;;18.27;100.00
41686;BME280;27370;42.764;23.432;2023-09-19T06:11:17;95857.06;;;18.23;100.00
41686;BME280;27370;42.764;23.432;2023-09-19T06:13:46;95860.66;;;18.42;100.00
41686;BME280;27370;42.764;23.432;2023-09-19T06:16:13;95863.03;;;18.62;100.00
41686;BME280;27370;42.764;23.432;2023-09-19T06:18:38;95849.66;;;18.64;100.00
41686;BME280;27370;42.764;23.432;2023-09-19T06:21:04;95850.34;;;18.55;100.00
41686;BME280;27370;42.764;23.432;2023-09-19T06:23:34;95846.84;;;18.55;100.00
41686;BME280;27370;42.764;23.432;2023-09-19T06:26:00;95847.88;;;18.48;100.00
41686;BME280;27370;42.764;23.432;2023-09-19T06:28:25;95852.00;;;18.44;100.00
41686;BME280;27370;42.764;23.432;2023-09-19T06:30:54;95856.69;;;18.34;100.00
41686;BME280;27370;42.764;23.432;2023-09-19T06:33:20;95839.50;;;18.43;100.00
41686;BME280;27370;42.764;23.432;2023-09-19T06:35:47;95847.13;;;18.48;100.00
41686;BME280;27370;42.764;23.432;2023-09-19T06:38:13;95840.47;;;18.58;100.00
41686;BME280;27370;42.764;23.432;2023-09-19T06:40:41;95835.88;;;18.55;100.00
41686;BME280;27370;42.764;23.432;2023-09-19T06:43:10;95841.34;;;18.46;100.00
41686;BME280;27370;42.764;23.432;2023-09-19T06:45:36;95837.91;;;18.63;100.00
41686;BME280;27370;42.764;23.432;2023-09-19T06:48:01;95836.91;;;18.79;100.00
41686;BME280;27370;42.764;23.432;2023-09-19T06:50:28;95851.38;;;18.80;100.00
41686;BME280;27370;42.764;23.432;2023-09-19T06:52:58;95854.25;;;18.76;100.00
41686;BME280;27370;42.764;23.432;2023-09-19T06:55:25;95844.22;;;18.82;100.00
41686;BME280;27370;42.764;23.432;2023-09-19T06:57:53;95851.22;;;18.92;100.00
41686;BME280;27370;42.764;23.432;2023-09-19T07:00:20;95850.19;;;19.08;100.00
41686;BME280;27370;42.764;23.432;2023-09-19T07:03:00;95850.63;;;18.97;100.00
41686;BME280;27370;42.764;23.432;2023-09-19T07:05:30;95854.00;;;19.11;100.00
41686;BME280;27370;42.764;23.432;2023-09-19T07:07:57;95855.53;;;19.21;100.00
41686;BME280;27370;42.764;23.432;2023-09-19T07:10:27;95845.63;;;19.42;100.00
41686;BME280;27370;42.764;23.432;2023-09-19T07:13:10;95852.22;;;19.53;100.00
41686;BME280;27370;42.764;23.432;2023-09-19T07:15:37;95857.09;;;19.58;100.00
41686;BME280;27370;42.764;23.432;2023-09-19T07:18:07;95854.31;;;19.68;100.00
41686;BME280;27370;42.764;23.432;2023-09-19T07:20:36;95855.84;;;19.78;100.00
41686;BME280;27370;42.764;23.432;2023-09-19T07:23:02;95849.75;;;19.74;100.00
41686;BME280;27370;42.764;23.432;2023-09-19T07:25:28;95856.31;;;19.76;100.00
41686;BME280;27370;42.764;23.432;2023-09-19T07:27:58;95852.50;;;19.74;100.00
41686;BME280;27370;42.764;23.432;2023-09-19T07:30:26;95850.38;;;19.60;100.00
41686;BME280;27370;42.764;23.432;2023-09-19T07:32:52;95840.91;;;19.70;100.00
41686;BME280;27370;42.764;23.432;2023-09-19T07:35:18;95846.09;;;19.68;100.00
41686;BME280;27370;42.764;23.432;2023-09-19T07:37:46;95840.78;;;19.55;100.00
41686;BME280;27370;42.764;23.432;2023-09-19T07:40:15;95843.97;;;19.53;100.00
41686;BME280;27370;42.764;23.432;2023-09-19T07:42:41;95846.56;;;19.48;100.00
41686;BME280;27370;42.764;23.432;2023-09-19T07:45:08;95840.16;;;19.60;100.00
41686;BME280;27370;42.764;23.432;2023-09-19T07:47:34;95851.91;;;19.70;100.00
41686;BME280;27370;42.764;23.432;2023-09-19T07:50:01;95848.41;;;19.69;100.00
41686;BME280;27370;42.764;23.432;2023-09-19T07:52:28;95852.50;;;19.74;100.00
41686;BME280;27370;42.764;23.432;2023-09-19T07:54:54;95852.91;;;19.91;100.00
41686;BME280;27370;42.764;23.432;2023-09-19T07:57:20;95860.22;;;20.03;100.00
41686;BME280;27370;42.764;23.432;2023-09-19T07:59:45;95855.38;;;19.98;100.00
41686;BME280;27370;42.764;23.432;2023-09-19T08:02:11;95863.16;;;19.99;100.00
41686;BME280;27370;42.764;23.432;2023-09-19T08:04:42;95862.84;;;19.97;100.00
41686;BME280;27370;42.764;23.432;2023-09-19T08:07:08;95854.69;;;20.21;100.00
41686;BME280;27370;42.764;23.432;2023-09-19T08:09:34;95861.53;;;20.26;100.00
41686;BME280;27370;42.764;23.432;2023-09-19T08:12:00;95854.34;;;20.28;100.00
41686;BME280;27370;42.764;23.432;2023-09-19T08:14:30;95855.69;;;20.33;100.00
41686;BME280;27370;42.764;23.432;2023-09-19T08:16:57;95842.56;;;20.46;100.00
41686;BME280;27370;42.764;23.432;2023-09-19T08:19:24;95842.66;;;20.61;100.00
41686;BME280;27370;42.764;23.432;2023-09-19T08:21:55;95835.03;;;20.79;100.00
41686;BME280;27370;42.764;23.432;2023-09-19T08:24:27;95832.75;;;20.78;100.00
41686;BME280;27370;42.764;23.432;2023-09-19T08:26:57;95822.03;;;20.80;100.00
41686;BME280;27370;42.764;23.432;2023-09-19T08:29:24;95828.00;;;20.78;100.00
41686;BME280;27370;42.764;23.432;2023-09-19T08:31:56;95815.75;;;20.79;100.00
41686;BME280;27370;42.764;23.432;2023-09-19T08:34:23;95824.44;;;20.87;100.00
41686;BME280;27370;42.764;23.432;2023-09-19T08:36:53;95823.72;;;21.01;100.00
41686;BME280;27370;42.764;23.432;2023-09-19T08:39:25;95829.13;;;20.96;100.00
41686;BME280;27370;42.764;23.432;2023-09-19T08:41:58;95825.00;;;21.15;100.00
41686;BME280;27370;42.764;23.432;2023-09-19T08:44:25;95829.28;;;21.16;100.00
41686;BME280;27370;42.764;23.432;2023-09-19T08:46:54;95827.09;;;21.05;100.00
41686;BME280;27370;42.764;23.432;2023-09-19T08:49:41;95818.81;;;21.05;100.00
41686;BME280;27370;42.764;23.432;2023-09-19T08:52:20;95824.03;;;20.79;100.00
41686;BME280;27370;42.764;23.432;2023-09-19T08:54:48;95826.06;;;20.70;100.00
41686;BME280;27370;42.764;23.432;2023-09-19T08:57:17;95822.28;;;20.91;100.00
41686;BME280;27370;42.764;23.432;2023-09-19T08:59:50;95816.84;;;21.06;100.00
41686;BME280;27370;42.764;23.432;2023-09-19T09:02:16;95821.59;;;21.29;100.00
41686;BME280;27370;42.764;23.432;2023-09-19T09:04:45;95818.25;;;21.40;100.00
41686;BME280;27370;42.764;23.432;2023-09-19T09:07:12;95814.78;;;21.54;100.00
41686;BME280;27370;42.764;23.432;2023-09-19T09:09:38;95807.69;;;21.77;100.00
41686;BME280;27370;42.764;23.432;2023-09-19T09:12:13;95804.44;;;21.79;100.00
41686;BME280;27370;42.764;23.432;2023-09-19T09:14:44;95800.81;;;21.87;100.00
41686;BME280;27370;42.764;23.432;2023-09-19T09:17:11;95796.81;;;22.03;100.00
41686;BME280;27370;42.764;23.432;2023-09-19T09:19:37;95789.22;;;22.27;100.00
41686;BME280;27370;42.764;23.432;2023-09-19T09:22:10;95791.56;;;22.35;100.00
41686;BME280;27370;42.764;23.432;2023-09-19T09:24:37;95793.34;;;22.52;100.00
41686;BME280;27370;42.764;23.432;2023-09-19T09:27:15;95785.28;;;22.69;100.00
41686;BME280;27370;42.764;23.432;2023-09-19T09:29:49;95781.44;;;23.02;100.00
41686;BME280;27370;42.764;23.432;2023-09-19T09:34:52;95778.72;;;23.28;100.00
41686;BME280;27370;42.764;23.432;2023-09-19T09:37:19;95778.97;;;23.50;100.00
41686;BME280;27370;42.764;23.432;2023-09-19T09:39:50;95779.34;;;23.58;100.00
41686;BME280;27370;42.764;23.432;2023-09-19T09:42:38;95779.09;;;23.35;100.00
41686;BME280;27370;42.764;23.432;2023-09-19T09:45:19;95777.34;;;23.38;100.00
41686;BME280;27370;42.764;23.432;2023-09-19T09:48:02;95766.03;;;23.36;100.00
41686;BME280;27370;42.764;23.432;2023-09-19T09:50:36;95761.41;;;23.27;100.00
41686;BME280;27370;42.764;23.432;2023-09-19T09:53:23;95766.28;;;23.38;100.00
41686;BME280;27370;42.764;23.432;2023-09-19T09:56:07;95761.41;;;23.27;100.00
41686;BME280;27370;42.764;23.432;2023-09-19T09:58:49;95764.25;;;23.12;100.00
41686;BME280;27370;42.764;23.432;2023-09-19T10:01:15;95763.84;;;23.19;100.00
41686;BME280;27370;42.764;23.432;2023-09-19T10:03:42;95760.63;;;23.27;100.00
41686;BME280;27370;42.764;23.432;2023-09-19T10:06:16;95756.44;;;23.31;100.00
41686;BME280;27370;42.764;23.432;2023-09-19T10:08:58;95750.78;;;23.20;100.00
41686;BME280;27370;42.764;23.432;2023-09-19T10:11:30;95756.53;;;23.16;100.00
41686;BME280;27370;42.764;23.432;2023-09-19T10:13:58;95749.81;;;23.23;100.00
41686;BME280;27370;42.764;23.432;2023-09-19T10:16:30;95752.28;;;23.21;100.00
41686;BME280;27370;42.764;23.432;2023-09-19T10:19:01;95752.50;;;23.17;100.00
41686;BME280;27370;42.764;23.432;2023-09-19T10:21:28;95747.16;;;23.34;100.00
41686;BME280;27370;42.764;23.432;2023-09-19T10:23:58;95745.16;;;23.35;100.00
41686;BME280;27370;42.764;23.432;2023-09-19T10:26:26;95738.13;;;23.34;100.00
41686;BME280;27370;42.764;23.432;2023-09-19T10:28:56;95743.44;;;23.37;100.00
41686;BME280;27370;42.764;23.432;2023-09-19T10:31:27;95742.19;;;23.38;100.00
41686;BME280;27370;42.764;23.432;2023-09-19T10:33:55;95733.19;;;23.43;100.00
41686;BME280;27370;42.764;23.432;2023-09-19T10:36:24;95725.66;;;23.70;100.00
41686;BME280;27370;42.764;23.432;2023-09-19T10:38:56;95732.06;;;23.81;100.00
41686;BME280;27370;42.764;23.432;2023-09-19T10:41:29;95721.00;;;23.81;100.00
41686;BME280;27370;42.764;23.432;2023-09-19T10:43:56;95724.63;;;23.99;100.00
41686;BME280;27370;42.764;23.432;2023-09-19T10:46:25;95716.00;;;23.86;100.00
41686;BME280;27370;42.764;23.432;2023-09-19T10:48:51;95721.59;;;23.97;100.00
41686;BME280;27370;42.764;23.432;2023-09-19T10:51:24;95730.59;;;23.92;100.00
41686;BME280;27370;42.764;23.432;2023-09-19T10:54:05;95716.13;;;24.02;100.00
41686;BME280;27370;42.764;23.432;2023-09-19T10:56:35;95716.47;;;23.84;100.00
41686;BME280;27370;42.764;23.432;2023-09-19T10:59:11;95716.31;;;23.99;100.00
41686;BME280;27370;42.764;23.432;2023-09-19T11:01:55;95710.25;;;24.26;100.00
41686;BME280;27370;42.764;23.432;2023-09-19T11:04:31;95711.59;;;24.42;100.00
41686;BME280;27370;42.764;23.432;2023-09-19T11:15:03;95699.66;;;24.25;100.00
41686;BME280;27370;42.764;23.432;2023-09-19T11:17:40;95701.94;;;24.26;100.00
41686;BME280;27370;42.764;23.432;2023-09-19T11:30:33;95685.50;;;24.60;100.00
41686;BME280;27370;42.764;23.432;2023-09-19T11:36:11;95683.13;;;24.95;100.00
41686;BME280;27370;42.764;23.432;2023-09-19T11:43:46;95664.53;;;25.01;100.00
41686;BME280;27370;42.764;23.432;2023-09-19T11:46:13;95661.53;;;25.11;100.00
41686;BME280;27370;42.764;23.432;2023-09-19T11:48:43;95651.22;;;25.17;100.00
41686;BME280;27370;42.764;23.432;2023-09-19T11:51:14;95657.53;;;25.40;100.00
41686;BME280;27370;42.764;23.432;2023-09-19T11:53:56;95651.00;;;25.43;100.00
41686;BME280;27370;42.764;23.432;2023-09-19T11:56:26;95641.19;;;25.58;100.00
41686;BME280;27370;42.764;23.432;2023-09-19T11:58:57;95644.44;;;25.57;100.00
41686;BME280;27370;42.764;23.432;2023-09-19T12:03:56;95644.94;;;25.61;100.00
41686;BME280;27370;42.764;23.432;2023-09-19T12:06:28;95637.63;;;25.24;100.00
41686;BME280;27370;42.764;23.432;2023-09-19T12:08:55;95640.63;;;25.32;100.00
41686;BME280;27370;42.764;23.432;2023-09-19T12:11:23;95638.66;;;25.77;100.00
41686;BME280;27370;42.764;23.432;2023-09-19T12:13:49;95636.13;;;25.74;100.00
41686;BME280;27370;42.764;23.432;2023-09-19T12:16:17;95617.19;;;25.55;100.00
41686;BME280;27370;42.764;23.432;2023-09-19T12:18:47;95621.00;;;25.47;100.00
41686;BME280;27370;42.764;23.432;2023-09-19T12:21:41;95610.66;;;25.75;100.00
41686;BME280;27370;42.764;23.432;2023-09-19T12:26:41;95610.88;;;25.94;100.00
41686;BME280;27370;42.764;23.432;2023-09-19T12:29:18;95598.03;;;25.91;100.00
41686;BME280;27370;42.764;23.432;2023-09-19T12:31:51;95601.28;;;26.01;100.00
41686;BME280;27370;42.764;23.432;2023-09-19T12:34:23;95597.41;;;26.32;100.00
41686;BME280;27370;42.764;23.432;2023-09-19T12:39:44;95600.72;;;26.82;100.00
41686;BME280;27370;42.764;23.432;2023-09-19T12:42:24;95595.34;;;26.90;100.00
41686;BME280;27370;42.764;23.432;2023-09-19T12:44:57;95594.28;;;26.58;100.00
41686;BME280;27370;42.764;23.432;2023-09-19T12:47:30;95596.56;;;26.59;100.00
41686;BME280;27370;42.764;23.432;2023-09-19T12:50:15;95592.06;;;26.45;100.00
41686;BME280;27370;42.764;23.432;2023-09-19T12:52:59;95600.69;;;26.30;100.00
41686;BME280;27370;42.764;23.432;2023-09-19T12:55:29;95589.03;;;26.48;100.00
41686;BME280;27370;42.764;23.432;2023-09-19T12:58:13;95582.97;;;26.50;100.00
41686;BME280;27370;42.764;23.432;2023-09-19T13:00:44;95588.03;;;26.46;100.00
41686;BME280;27370;42.764;23.432;2023-09-19T13:03:26;95581.81;;;26.12;100.00
41686;BME280;27370;42.764;23.432;2023-09-19T13:08:29;95570.75;;;26.64;100.00
41686;BME280;27370;42.764;23.432;2023-09-19T13:13:33;95571.50;;;26.07;100.00
41686;BME280;27370;42.764;23.432;2023-09-19T13:16:01;95556.69;;;25.82;100.00
41686;BME280;27370;42.764;23.432;2023-09-19T13:18:44;95561.66;;;26.11;100.00
41686;BME280;27370;42.764;23.432;2023-09-19T13:21:15;95547.47;;;26.20;100.00
41686;BME280;27370;42.764;23.432;2023-09-19T13:23:50;95555.88;;;26.04;100.00
41686;BME280;27370;42.764;23.432;2023-09-19T13:26:15;95553.06;;;26.15;100.00
41686;BME280;27370;42.764;23.432;2023-09-19T13:28:41;95551.09;;;26.04;100.00
41686;BME280;27370;42.764;23.432;2023-09-19T13:31:09;95551.03;;;26.15;100.00
41686;BME280;27370;42.764;23.432;2023-09-19T13:33:43;95547.25;;;26.13;100.00
41686;BME280;27370;42.764;23.432;2023-09-19T13:36:09;95544.56;;;25.90;100.00
41686;BME280;27370;42.764;23.432;2023-09-19T13:38:35;95542.06;;;25.76;100.00
41686;BME280;27370;42.764;23.432;2023-09-19T13:41:00;95546.34;;;25.88;100.00
41686;BME280;27370;42.764;23.432;2023-09-19T13:43:27;95538.75;;;25.94;100.00
41686;BME280;27370;42.764;23.432;2023-09-19T13:45:54;95535.53;;;25.68;100.00
41686;BME280;27370;42.764;23.432;2023-09-19T13:48:20;95537.00;;;25.80;100.00
41686;BME280;27370;42.764;23.432;2023-09-19T13:50:48;95535.78;;;25.81;100.00
41686;BME280;27370;42.764;23.432;2023-09-19T13:53:14;95530.47;;;25.83;100.00
41686;BME280;27370;42.764;23.432;2023-09-19T13:55:40;95530.63;;;26.02;100.00
41686;BME280;27370;42.764;23.432;2023-09-19T13:58:06;95527.09;;;26.07;100.00